Time;durP1;ratioP1;P1;durP2;ratioP2;P2;SDS_P1;SDS_P2;PMS_P1;PMS_P2;Temp;Humidity;BMP_temperature;BMP_pressure;BME280_temperature;BME280_humidity;BME280_pressure;Samples;Min_cycle;Max_cycle;Signal;HPM_P1;HPM_P2
2021/04/01 00:02:06;;;;;;;23.45;11.75;;;;;;;10.71;77.11;101639.75;5071084;28;20415;-54
2021/04/01 00:04:34;;;;;;;25.90;11.35;;;;;;;10.73;76.82;101645.78;5072629;28;20056;-56
2021/04/01 00:07:00;;;;;;;25.55;10.52;;;;;;;10.69;76.84;101646.75;5071909;28;20044;-53
2021/04/01 00:09:27;;;;;;;29.20;10.45;;;;;;;10.67;76.95;101655.38;5068972;28;20068;-53
2021/04/01 00:11:53;;;;;;;27.80;10.70;;;;;;;10.66;76.99;101648.22;5072517;28;20436;-56
2021/04/01 00:14:23;;;;;;;20.80;9.45;;;;;;;10.66;76.94;101648.22;5072381;28;20090;-53
2021/04/01 00:16:50;;;;;;;21.90;5.47;;;;;;;10.58;77.01;101645.44;5072629;28;20525;-54
2021/04/01 00:19:16;;;;;;;20.58;6.03;;;;;;;10.51;76.75;101642.34;5072252;28;20048;-51
2021/04/01 00:21:43;;;;;;;18.80;6.10;;;;;;;10.46;76.70;101642.47;5066161;28;20044;-55
2021/04/01 00:24:09;;;;;;;26.48;7.15;;;;;;;10.37;76.98;101646.03;5070430;28;20042;-53
2021/04/01 00:26:36;;;;;;;17.33;5.05;;;;;;;10.38;76.61;101649.59;5076723;28;20052;-54
2021/04/01 00:29:02;;;;;;;21.15;5.15;;;;;;;10.33;76.66;101650.56;5084387;28;20059;-55
2021/04/01 00:31:29;;;;;;;16.83;4.05;;;;;;;10.30;76.64;101653.97;5071490;28;20517;-57
2021/04/01 00:33:56;;;;;;;28.13;5.70;;;;;;;10.25;76.56;101661.63;5072278;28;20044;-54
2021/04/01 00:36:23;;;;;;;15.02;3.78;;;;;;;10.16;76.82;101658.84;5070935;28;20532;-55
2021/04/01 00:38:49;;;;;;;16.52;3.83;;;;;;;10.16;76.77;101667.16;5072197;28;20131;-51
2021/04/01 00:41:16;;;;;;;17.05;3.22;;;;;;;10.11;76.84;101674.75;5070777;28;20068;-52
2021/04/01 00:43:42;;;;;;;13.85;3.90;;;;;;;10.12;76.88;101670.81;5070300;28;20052;-51
2021/04/01 00:46:08;;;;;;;13.25;3.17;;;;;;;10.15;76.62;101672.97;5072050;28;20052;-56
2021/04/01 00:48:35;;;;;;;13.15;3.38;;;;;;;10.10;76.39;101668.38;5071708;28;20047;-53
2021/04/01 00:51:01;;;;;;;25.95;5.85;;;;;;;10.04;76.70;101675.19;5067105;28;20094;-52
2021/04/01 00:53:27;;;;;;;19.80;3.95;;;;;;;9.99;76.72;101667.03;5071508;28;20098;-52
2021/04/01 00:55:54;;;;;;;16.40;4.25;;;;;;;9.96;76.75;101672.38;5071836;28;20040;-50
2021/04/01 00:58:20;;;;;;;18.27;4.18;;;;;;;9.97;76.73;101685.91;5071462;28;20565;-53
2021/04/01 01:00:56;;;;;;;14.55;4.55;;;;;;;9.91;76.80;101676.09;5071380;28;20094;-53
2021/04/01 01:03:23;;;;;;;21.63;4.00;;;;;;;9.86;76.87;101678.19;5070997;28;20564;-53
2021/04/01 01:05:49;;;;;;;27.13;4.10;;;;;;;9.87;77.01;101686.19;5070953;28;20072;-49
2021/04/01 01:08:15;;;;;;;14.30;3.95;;;;;;;9.88;77.11;101676.72;5071545;28;20076;-57
2021/04/01 01:10:42;;;;;;;18.60;4.22;;;;;;;9.96;77.08;101688.97;5071423;28;20112;-53
2021/04/01 01:13:08;;;;;;;15.75;4.50;;;;;;;9.99;76.98;101680.03;5071289;28;20448;-51
2021/04/01 01:15:34;;;;;;;17.25;3.67;;;;;;;10.00;76.88;101690.81;5071170;28;20089;-53
2021/04/01 01:18:01;;;;;;;18.15;4.90;;;;;;;10.05;76.94;101693.44;5066238;28;20116;-51
2021/04/01 01:20:28;;;;;;;16.58;4.05;;;;;;;10.04;77.16;101697.31;5071105;28;20071;-52
2021/04/01 01:23:16;;;;;;;24.95;4.85;;;;;;;10.05;77.27;101690.66;5069971;28;20048;-53
2021/04/01 01:25:43;;;;;;;16.40;5.35;;;;;;;10.05;77.22;101695.38;5086430;28;20071;-52
2021/04/01 01:28:09;;;;;;;33.97;7.78;;;;;;;9.98;77.27;101692.25;5071253;28;20054;-54
2021/04/01 01:30:37;;;;;;;14.15;3.72;;;;;;;9.93;77.27;101695.97;5071430;28;20037;-53
2021/04/01 01:33:07;;;;;;;18.40;3.67;;;;;;;9.85;77.45;101702.25;5070771;28;20115;-50
2021/04/01 01:35:37;;;;;;;27.25;4.72;;;;;;;9.85;77.33;101699.50;5070484;28;20098;-53
2021/04/01 01:38:08;;;;;;;15.35;3.63;;;;;;;9.82;77.29;101691.84;5070816;28;20106;-53
2021/04/01 01:40:35;;;;;;;20.33;4.20;;;;;;;9.78;77.55;101693.59;5070980;28;20084;-54
2021/04/01 01:43:08;;;;;;;23.42;4.32;;;;;;;9.79;77.41;101706.31;5070754;28;20072;-53
2021/04/01 01:45:36;;;;;;;17.98;4.78;;;;;;;9.79;77.34;101698.81;5070893;28;20032;-50
2021/04/01 01:48:03;;;;;;;22.13;4.53;;;;;;;9.77;77.33;101697.50;5070241;28;20147;-49
2021/04/01 01:50:32;;;;;;;25.77;5.10;;;;;;;9.74;77.51;101703.69;5070723;28;20165;-53
2021/04/01 01:52:59;;;;;;;28.00;6.25;;;;;;;9.70;77.72;101708.19;5070131;28;20044;-55
2021/04/01 01:55:27;;;;;;;22.02;4.63;;;;;;;9.70;77.66;101706.25;5071281;28;20044;-54
2021/04/01 01:57:53;;;;;;;29.88;6.32;;;;;;;9.70;77.90;101710.97;5069147;28;20504;-53
2021/04/01 02:00:30;;;;;;;14.00;4.43;;;;;;;9.76;77.78;101701.41;5069937;28;20469;-52
2021/04/01 02:02:59;;;;;;;21.60;5.05;;;;;;;9.81;77.96;101704.03;5070254;28;20131;-51
2021/04/01 02:05:27;;;;;;;20.27;5.40;;;;;;;9.86;77.82;101701.13;5071253;28;20127;-52
2021/04/01 02:07:54;;;;;;;18.23;6.97;;;;;;;9.88;77.79;101709.09;5070377;28;20131;-51
2021/04/01 02:10:32;;;;;;;26.17;6.47;;;;;;;9.88;78.51;101698.03;5072517;28;20068;-53
2021/04/01 02:13:00;;;;;;;21.05;6.93;;;;;;;9.88;78.09;101714.63;5074758;28;20497;-50
2021/04/01 02:15:33;;;;;;;26.58;9.68;;;;;;;9.84;78.74;101708.94;5074399;28;20415;-50
2021/04/01 02:18:05;;;;;;;29.15;5.80;;;;;;;9.76;79.25;101706.94;5074693;28;20151;-53
2021/04/01 02:20:39;;;;;;;29.33;7.03;;;;;;;9.79;78.74;101720.13;5074973;28;20401;-52
2021/04/01 02:23:07;;;;;;;27.05;7.78;;;;;;;9.78;78.87;101724.84;5074170;28;20047;-55
2021/04/01 02:25:33;;;;;;;20.58;5.22;;;;;;;9.77;79.07;101716.84;5074682;28;20083;-55
2021/04/01 02:28:00;;;;;;;21.20;5.93;;;;;;;9.76;79.05;101724.34;5074273;28;20071;-52
2021/04/01 02:30:26;;;;;;;29.15;6.45;;;;;;;9.74;79.23;101731.34;5074086;28;20465;-53
2021/04/01 02:32:52;;;;;;;24.23;8.18;;;;;;;9.72;79.22;101725.28;5074071;28;20071;-52
2021/04/01 02:35:19;;;;;;;17.52;5.18;;;;;;;9.71;79.19;101727.25;5074687;28;20044;-52
2021/04/01 02:37:45;;;;;;;20.55;6.40;;;;;;;9.65;79.47;101727.69;5055362;28;20061;-52
2021/04/01 02:40:13;;;;;;;23.35;6.32;;;;;;;9.58;79.62;101724.56;5053282;28;20060;-53
2021/04/01 02:42:40;;;;;;;19.95;6.55;;;;;;;9.61;79.62;101727.50;5037170;28;20471;-53
2021/04/01 02:45:08;;;;;;;17.05;5.60;;;;;;;9.57;79.76;101739.50;5053546;28;20072;-51
2021/04/01 02:47:34;;;;;;;23.33;6.07;;;;;;;9.52;79.79;101734.09;5054817;28;20553;-53
2021/04/01 02:50:01;;;;;;;21.63;5.78;;;;;;;9.50;79.83;101737.19;5054156;28;20082;-52
2021/04/01 02:52:27;;;;;;;20.73;6.22;;;;;;;9.50;79.78;101752.94;5053057;28;20048;-55
2021/04/01 02:54:53;;;;;;;22.73;4.90;;;;;;;9.48;80.01;101755.19;5054508;28;20049;-51
2021/04/01 02:57:20;;;;;;;21.60;6.50;;;;;;;9.46;80.04;101751.94;5053406;28;20049;-55
2021/04/01 03:00:11;;;;;;;23.05;5.72;;;;;;;9.37;80.54;101753.81;5061047;28;20044;-50
2021/04/01 03:03:48;;;;;;;27.80;7.13;;;;;;;9.33;80.38;101761.09;5051921;28;20044;-50
2021/04/01 03:05:42;;;;;;;27.50;5.68;;;;;;;9.32;80.42;101759.47;5040250;28;20468;-55
2021/04/01 03:08:09;;;;;;;16.75;5.78;;;;;;;9.34;80.25;101763.56;5048751;28;20064;-55
2021/04/01 03:10:36;;;;;;;19.98;5.00;;;;;;;9.40;80.03;101758.72;5053619;28;20056;-51
2021/04/01 03:13:02;;;;;;;21.70;5.30;;;;;;;9.36;80.24;101752.19;5052196;28;20087;-54
2021/04/01 03:15:29;;;;;;;24.77;5.20;;;;;;;9.34;80.36;101760.78;5054258;28;20041;-54
2021/04/01 03:17:56;;;;;;;20.95;4.50;;;;;;;9.38;80.16;101767.31;5060203;28;20051;-52
2021/04/01 03:20:23;;;;;;;21.08;5.45;;;;;;;9.40;80.07;101764.25;5052300;28;20437;-56
2021/04/01 03:22:50;;;;;;;15.77;4.55;;;;;;;9.38;80.30;101767.31;5051707;28;20076;-52
2021/04/01 03:25:16;;;;;;;19.77;4.65;;;;;;;9.29;80.38;101762.84;5054241;28;20069;-56
2021/04/01 03:27:42;;;;;;;23.77;6.93;;;;;;;9.25;80.50;101773.69;5053530;28;20131;-52
2021/04/01 03:30:12;;;;;;;14.70;4.55;;;;;;;9.24;80.78;101771.25;5053698;28;20120;-55
2021/04/01 03:32:41;;;;;;;16.58;4.90;;;;;;;9.26;80.66;101771.75;5051746;28;20482;-54
2021/04/01 03:35:10;;;;;;;22.70;5.00;;;;;;;9.27;80.55;101770.63;5055331;28;20048;-51
2021/04/01 03:37:37;;;;;;;24.63;5.65;;;;;;;9.27;80.63;101776.97;5064433;28;20099;-53
2021/04/01 03:40:05;;;;;;;26.20;6.13;;;;;;;9.29;80.45;101774.72;5062206;28;20045;-53
2021/04/01 03:42:32;;;;;;;20.95;4.43;;;;;;;9.28;80.47;101769.50;5051841;28;20044;-54
2021/04/01 03:44:59;;;;;;;21.58;6.40;;;;;;;9.31;80.47;101779.94;5065910;28;20045;-53
2021/04/01 03:47:25;;;;;;;18.70;4.60;;;;;;;9.30;80.41;101781.06;5067547;28;20437;-54
2021/04/01 03:49:51;;;;;;;16.27;5.30;;;;;;;9.28;80.50;101783.31;5065203;28;20579;-56
2021/04/01 03:52:18;;;;;;;21.63;5.60;;;;;;;9.29;80.46;101796.00;5054707;28;20483;-56
2021/04/01 03:54:49;;;;;;;28.50;7.80;;;;;;;9.29;80.49;101782.19;5053038;28;20387;-55
2021/04/01 03:57:16;;;;;;;21.75;5.25;;;;;;;9.22;80.44;101790.91;5052886;28;20628;-54
2021/04/01 03:59:47;;;;;;;39.60;6.85;;;;;;;9.24;80.52;101794.16;5053425;28;20056;-55
2021/04/01 04:02:40;;;;;;;17.08;4.93;;;;;;;9.29;80.43;101801.53;5065390;28;20125;-54
2021/04/01 04:12:50;;;;;;;23.35;5.43;;;;;;;9.18;80.89;101800.94;5058486;28;20051;-57
2021/04/01 04:15:20;;;;;;;13.82;4.72;;;;;;;9.15;80.95;101802.38;5053036;28;20080;-55
2021/04/01 04:17:46;;;;;;;32.03;5.15;;;;;;;9.16;80.93;101809.53;5055004;28;20049;-54
2021/04/01 04:20:13;;;;;;;27.17;6.28;;;;;;;9.17;80.88;101808.41;5037539;28;20056;-56
2021/04/01 04:22:40;;;;;;;27.60;5.63;;;;;;;9.17;80.73;101810.34;5072634;28;20040;-57
2021/04/01 04:25:09;;;;;;;20.95;5.35;;;;;;;9.18;80.59;101818.34;5063687;28;20107;-52
2021/04/01 04:30:04;;;;;;;27.25;5.40;;;;;;;9.09;81.22;101820.19;5052612;28;20476;-52
2021/04/01 04:32:32;;;;;;;30.23;6.88;;;;;;;9.12;80.98;101827.88;5051931;28;20033;-54
2021/04/01 04:34:58;;;;;;;25.27;4.82;;;;;;;9.15;80.75;101823.66;5052477;28;20067;-53
2021/04/01 04:37:25;;;;;;;22.38;6.35;;;;;;;9.17;80.77;101822.22;5053755;28;20052;-54
2021/04/01 04:39:51;;;;;;;24.88;4.20;;;;;;;9.16;81.04;101822.53;5052033;28;20072;-55
2021/04/01 04:42:19;;;;;;;20.38;4.55;;;;;;;9.18;80.90;101834.94;5034583;28;20071;-56
2021/04/01 04:44:45;;;;;;;13.68;4.07;;;;;;;9.17;80.90;101829.69;5052030;28;20076;-54
2021/04/01 04:47:12;;;;;;;20.25;4.35;;;;;;;9.12;80.92;101836.16;5051676;28;20072;-57
2021/04/01 04:49:38;;;;;;;25.15;6.10;;;;;;;9.13;81.01;101837.78;5051744;28;20086;-56
2021/04/01 04:52:07;;;;;;;13.00;4.07;;;;;;;9.11;81.09;101833.69;5051915;28;20049;-55
2021/04/01 04:54:33;;;;;;;21.38;4.10;;;;;;;9.12;80.83;101838.09;5050771;28;20041;-55
2021/04/01 04:57:06;;;;;;;15.13;3.90;;;;;;;9.08;81.10;101837.09;5032030;28;20105;-54
2021/04/01 04:59:40;;;;;;;19.23;4.60;;;;;;;9.12;80.94;101840.84;5033487;28;20045;-55
2021/04/01 05:05:06;;;;;;;14.93;3.90;;;;;;;9.06;81.04;101844.84;5051755;28;20044;-54
2021/04/01 05:07:32;;;;;;;11.38;3.17;;;;;;;9.05;80.81;101840.47;5049888;28;20045;-53
2021/04/01 05:09:59;;;;;;;14.48;3.15;;;;;;;9.05;80.74;101852.31;5051933;28;20067;-57
2021/04/01 05:12:26;;;;;;;15.55;4.22;;;;;;;9.01;80.98;101844.94;5051536;28;20041;-54
2021/04/01 05:14:52;;;;;;;17.00;3.95;;;;;;;8.93;80.85;101860.31;5052225;28;20490;-56
2021/04/01 05:17:23;;;;;;;17.23;3.33;;;;;;;8.95;80.77;101863.56;5036225;28;20049;-54
2021/04/01 05:19:54;;;;;;;16.63;3.47;;;;;;;9.00;80.59;101877.28;5052068;28;20037;-57
2021/04/01 05:22:47;;;;;;;15.85;3.45;;;;;;;9.00;80.69;101870.97;5051458;28;20041;-54
2021/04/01 05:25:10;;;;;;;21.00;3.92;;;;;;;8.98;80.81;101870.44;5050603;28;20466;-56
2021/04/01 05:27:43;;;;;;;31.83;6.22;;;;;;;8.92;80.92;101874.44;5050975;28;20037;-57
2021/04/01 05:30:10;;;;;;;14.13;2.95;;;;;;;8.87;81.09;101877.31;5031872;28;20132;-59
2021/04/01 05:32:40;;;;;;;15.32;3.53;;;;;;;8.82;81.09;101874.59;5053327;28;20106;-55
2021/04/01 05:35:10;;;;;;;14.70;3.53;;;;;;;8.81;81.06;101878.50;5050896;28;20033;-54
2021/04/01 05:37:38;;;;;;;14.13;3.47;;;;;;;8.77;81.21;101872.78;5064469;28;20433;-54
2021/04/01 05:40:07;;;;;;;14.07;3.65;;;;;;;8.78;81.08;101885.47;5071413;28;20079;-56
2021/04/01 05:42:38;;;;;;;23.95;3.35;;;;;;;8.81;81.03;101889.56;5071330;28;20073;-54
2021/04/01 05:45:25;;;;;;;18.17;4.50;;;;;;;8.85;81.03;101885.88;5070674;28;20048;-55
2021/04/01 05:48:00;;;;;;;11.20;3.15;;;;;;;8.87;80.82;101889.13;5070253;28;20040;-53
2021/04/01 05:59:17;;;;;;;17.05;3.47;;;;;;;8.81;81.23;101901.44;5069872;28;20090;-53
2021/04/01 06:01:53;;;;;;;17.85;3.47;;;;;;;8.76;80.87;101897.94;5061774;28;20108;-51
2021/04/01 06:04:29;;;;;;;12.60;3.88;;;;;;;8.79;80.92;101909.19;5068239;28;20129;-51
2021/04/01 06:07:06;;;;;;;10.05;4.15;;;;;;;8.81;80.95;101900.59;5070666;28;20053;-51
2021/04/01 06:09:38;;;;;;;17.23;3.78;;;;;;;8.79;80.91;101903.66;5071439;28;20090;-55
2021/04/01 06:12:05;;;;;;;12.48;3.20;;;;;;;8.83;80.83;101910.22;5070495;28;20082;-55
2021/04/01 06:14:32;;;;;;;13.18;3.28;;;;;;;8.78;80.87;101899.28;5070989;28;20052;-56
2021/04/01 06:17:07;;;;;;;15.25;3.13;;;;;;;8.77;81.08;101905.09;5070835;28;20054;-51
2021/04/01 06:19:35;;;;;;;13.23;3.33;;;;;;;8.73;80.92;101913.19;5070242;28;20079;-52
2021/04/01 06:22:07;;;;;;;18.65;4.55;;;;;;;8.74;81.04;101914.78;5070278;28;20041;-53
2021/04/01 06:24:37;;;;;;;10.63;3.42;;;;;;;8.77;80.89;101914.19;5070650;28;20045;-54
2021/04/01 06:27:12;;;;;;;16.90;3.83;;;;;;;8.77;80.82;101911.44;5070629;28;20036;-54
2021/04/01 06:29:42;;;;;;;13.65;4.20;;;;;;;8.76;80.96;101915.34;5064439;28;20122;-52
2021/04/01 06:32:30;;;;;;;14.30;4.30;;;;;;;8.72;81.24;101914.28;5070620;28;20051;-53
2021/04/01 06:35:13;;;;;;;18.42;4.32;;;;;;;8.73;81.73;101921.47;5071124;28;20041;-51
2021/04/01 06:40:07;;;;;;;19.95;4.78;;;;;;;8.73;81.30;101924.22;5069061;28;20095;-55
2021/04/01 06:43:07;;;;;;;19.65;4.05;;;;;;;8.80;81.40;101921.03;5069258;28;20044;-54
2021/04/01 06:45:36;;;;;;;14.88;4.30;;;;;;;8.84;80.96;101933.94;5069471;28;20118;-51
2021/04/01 06:48:03;;;;;;;18.63;3.90;;;;;;;8.87;81.02;101932.53;5070749;28;20088;-54
2021/04/01 06:50:36;;;;;;;20.13;3.80;;;;;;;8.89;81.01;101925.56;5065657;28;20036;-54
2021/04/01 06:53:10;;;;;;;24.35;5.70;;;;;;;8.91;80.94;101928.84;5070429;28;20412;-51
2021/04/01 06:56:20;;;;;;;24.35;5.40;;;;;;;8.95;80.86;101940.91;5054929;28;20056;-56
2021/04/01 06:59:06;;;;;;;13.95;3.20;;;;;;;8.92;81.21;101936.00;5070132;28;20444;-55
2021/04/01 07:02:08;;;;;;;16.60;3.75;;;;;;;8.93;80.96;101937.63;5063013;28;20044;-55
2021/04/01 07:04:36;;;;;;;12.00;4.35;;;;;;;8.97;80.94;101943.38;5060614;28;20044;-56
2021/04/01 07:07:17;;;;;;;16.00;4.65;;;;;;;8.98;81.07;101951.34;5070642;28;20545;-53
2021/04/01 07:12:37;;;;;;;20.42;5.32;;;;;;;8.92;81.11;101947.03;5070484;28;20052;-55
2021/04/01 07:15:10;;;;;;;18.83;4.85;;;;;;;8.93;81.08;101943.16;5068608;28;20472;-55
2021/04/01 07:17:43;;;;;;;22.13;6.75;;;;;;;8.93;81.16;101956.16;5069665;28;20422;-55
2021/04/01 07:23:55;;;;;;;25.02;5.75;;;;;;;8.95;81.29;101963.00;5064388;28;20040;-52
2021/04/01 07:46:33;;;;;;;27.20;6.47;;;;;;;9.00;81.13;101985.00;5033416;28;20502;-53
2021/04/01 07:49:06;;;;;;;25.25;5.07;;;;;;;8.96;81.30;101985.91;5040250;28;20047;-52
2021/04/01 07:54:39;;;;;;;14.82;4.65;;;;;;;9.01;81.18;102000.47;5045278;28;20142;-55
2021/04/01 07:57:31;;;;;;;12.38;5.20;;;;;;;9.00;81.19;102004.34;5045165;28;20051;-55
2021/04/01 08:00:21;;;;;;;17.55;5.72;;;;;;;9.06;81.08;102003.13;5025844;28;20041;-61
2021/04/01 08:05:30;;;;;;;16.13;5.90;;;;;;;9.06;81.08;101992.06;5037076;28;20091;-59
2021/04/01 08:08:03;;;;;;;16.92;6.43;;;;;;;9.09;81.27;101997.00;5032098;28;20380;-55
2021/04/01 08:10:35;;;;;;;19.95;6.18;;;;;;;9.09;80.82;101998.94;5027762;28;20144;-58
2021/04/01 08:13:08;;;;;;;14.45;5.65;;;;;;;9.10;81.00;102006.94;5045398;28;20063;-57
2021/04/01 08:15:58;;;;;;;16.23;5.57;;;;;;;9.13;80.94;102006.31;5048096;28;20076;-56
2021/04/01 08:18:33;;;;;;;15.55;6.05;;;;;;;9.19;80.66;102010.63;5031364;28;20059;-56
2021/04/01 08:21:04;;;;;;;18.42;5.40;;;;;;;9.16;80.80;102022.28;5030190;28;20492;-58
2021/04/01 08:24:05;;;;;;;16.65;6.30;;;;;;;9.13;80.84;102020.13;5037421;28;20056;-57
2021/04/01 08:36:02;;;;;;;19.73;7.57;;;;;;;9.17;80.58;102034.97;5027792;28;20056;-57
2021/04/01 08:39:09;;;;;;;19.52;6.25;;;;;;;9.19;80.51;102029.97;5047213;28;20154;-56
2021/04/01 08:42:59;;;;;;;25.83;6.95;;;;;;;9.09;80.85;102035.69;5048509;28;20502;-55
2021/04/01 08:46:09;;;;;;;18.50;7.35;;;;;;;9.09;80.84;102032.91;5025553;28;20057;-58
2021/04/01 08:49:00;;;;;;;17.20;6.55;;;;;;;9.10;80.58;102040.09;5043146;28;20128;-57
2021/04/01 08:51:32;;;;;;;16.52;6.50;;;;;;;9.13;80.77;102050.50;5029661;28;20080;-55
2021/04/01 08:54:22;;;;;;;19.33;7.55;;;;;;;9.21;80.59;102048.19;5046211;28;20029;-56
2021/04/01 08:56:52;;;;;;;18.65;6.70;;;;;;;9.26;80.34;102046.16;5047980;28;20045;-56
2021/04/01 08:59:39;;;;;;;20.42;7.10;;;;;;;9.27;80.54;102049.72;5044921;28;20045;-52
2021/04/01 09:02:11;;;;;;;23.23;7.20;;;;;;;9.24;80.37;102048.38;5050238;28;20045;-54
2021/04/01 09:04:46;;;;;;;18.15;7.82;;;;;;;9.22;80.52;102047.03;5037958;28;20080;-55
2021/04/01 09:07:27;;;;;;;16.65;7.57;;;;;;;9.19;80.28;102062.28;5048622;28;20107;-58
2021/04/01 09:10:02;;;;;;;13.90;5.88;;;;;;;9.12;80.56;102051.66;5029036;28;20049;-55
2021/04/01 09:12:40;;;;;;;17.35;6.55;;;;;;;9.05;80.43;102058.69;5035535;28;20095;-52
2021/04/01 09:15:33;;;;;;;16.20;6.88;;;;;;;9.04;80.63;102054.28;5045832;28;20108;-54
2021/04/01 09:18:00;;;;;;;;;;;;;;;9.11;80.82;102052.75;5032883;28;20124;-60
2021/04/01 09:20:26;;;;;;;21.27;6.18;;;;;;;9.09;80.52;102066.06;5039860;28;20028;-55
2021/04/01 09:22:54;;;;;;;24.98;8.20;;;;;;;9.08;80.53;102050.59;5020477;28;20053;-55
2021/04/01 09:25:22;;;;;;;15.30;7.43;;;;;;;9.16;80.24;102058.19;5040683;28;20045;-54
2021/04/01 09:27:50;;;;;;;21.08;7.60;;;;;;;9.18;80.38;102058.72;5043118;28;20043;-55
2021/04/01 09:30:18;;;;;;;28.23;6.93;;;;;;;9.27;80.35;102060.75;5047000;28;20040;-58
2021/04/01 09:32:51;;;;;;;17.83;7.82;;;;;;;9.28;80.34;102059.66;5041521;28;20099;-54
2021/04/01 09:35:18;;;;;;;20.10;7.75;;;;;;;9.27;80.13;102060.75;5048792;28;20037;-59
2021/04/01 09:38:01;;;;;;;18.73;7.50;;;;;;;9.22;80.14;102077.44;5046495;28;20453;-58
2021/04/01 09:40:30;;;;;;;22.88;7.53;;;;;;;9.19;80.19;102068.63;5028228;28;20040;-57
2021/04/01 09:43:16;;;;;;;15.93;8.07;;;;;;;9.23;80.06;102070.81;5046665;28;20102;-56
2021/04/01 09:45:44;;;;;;;20.05;7.20;;;;;;;9.25;79.91;102071.31;5045407;28;20040;-57
2021/04/01 09:48:12;;;;;;;28.15;8.27;;;;;;;9.27;79.89;102066.28;5048724;28;20036;-55
2021/04/01 09:50:45;;;;;;;17.63;7.20;;;;;;;9.39;79.66;102055.56;5038968;28;20056;-52
2021/04/01 09:53:23;;;;;;;20.73;8.00;;;;;;;9.50;79.61;102068.09;5047006;28;20044;-55
2021/04/01 09:55:52;;;;;;;35.63;9.27;;;;;;;9.58;79.34;102059.88;5028458;28;20044;-56
2021/04/01 09:58:22;;;;;;;24.40;7.68;;;;;;;9.69;79.35;102071.56;5040132;28;20110;-53
2021/04/01 10:03:23;;;;;;;20.92;7.32;;;;;;;9.55;79.05;102077.09;5030904;28;20055;-55
2021/04/01 10:05:52;;;;;;;22.85;7.75;;;;;;;9.49;79.08;102077.50;5050905;28;20037;-55
2021/04/01 10:08:27;;;;;;;23.88;7.75;;;;;;;9.46;79.21;102084.47;5029708;28;20048;-58
2021/04/01 10:11:02;;;;;;;16.05;6.82;;;;;;;9.50;79.11;102085.50;5047167;28;20047;-56
2021/04/01 10:13:30;;;;;;;17.10;7.97;;;;;;;9.53;79.01;102078.53;5045788;28;20041;-53
2021/04/01 10:15:58;;;;;;;17.13;8.02;;;;;;;9.60;78.96;102090.84;5048721;28;20049;-57
2021/04/01 10:18:32;;;;;;;22.23;8.73;;;;;;;9.59;78.75;102091.13;5048162;28;20509;-56
2021/04/01 10:21:03;;;;;;;20.42;8.60;;;;;;;9.63;78.72;102103.22;5046781;28;20041;-53
2021/04/01 10:23:29;;;;;;;25.48;9.40;;;;;;;9.62;78.66;102094.09;5045975;28;20064;-60
2021/04/01 10:26:09;;;;;;;22.35;8.27;;;;;;;9.62;78.63;102101.56;5042610;28;20842;-55
2021/04/01 10:31:10;;;;;;;18.52;7.38;;;;;;;9.61;78.56;102111.00;5047383;28;20064;-55
2021/04/01 10:33:49;;;;;;;24.83;8.73;;;;;;;9.58;78.44;102111.63;5049315;28;20081;-55
2021/04/01 10:36:17;;;;;;;22.52;7.65;;;;;;;9.57;78.53;102119.09;5046894;28;20041;-55
2021/04/01 10:38:45;;;;;;;17.00;7.15;;;;;;;9.54;78.28;102110.56;5065297;28;20040;-55
2021/04/01 10:41:18;;;;;;;18.30;8.82;;;;;;;9.52;78.57;102116.41;5059562;28;20566;-52
2021/04/01 10:43:45;;;;;;;23.38;7.80;;;;;;;9.50;78.51;102126.97;5046416;28;20494;-55
2021/04/01 10:46:17;;;;;;;23.70;9.52;;;;;;;9.57;78.49;102129.31;5034685;28;20050;-53
2021/04/01 10:48:59;;;;;;;16.80;6.75;;;;;;;9.58;78.18;102126.22;5051727;28;20041;-56
2021/04/01 10:51:25;;;;;;;23.45;8.02;;;;;;;9.59;78.13;102127.06;5064643;28;20564;-55
2021/04/01 10:54:08;;;;;;;17.83;5.70;;;;;;;9.54;78.11;102124.38;5051664;28;20750;-55
2021/04/01 10:56:48;;;;;;;20.33;7.03;;;;;;;9.45;78.29;102126.25;5060915;28;20046;-55
2021/04/01 10:59:15;;;;;;;14.02;6.78;;;;;;;9.42;78.14;102135.97;5054624;28;20082;-54
2021/04/01 11:04:14;;;;;;;23.05;7.60;;;;;;;9.36;78.44;102128.03;5054138;28;20045;-82
2021/04/01 11:06:45;;;;;;;19.80;8.02;;;;;;;9.36;78.73;102136.34;5051128;28;20119;-80
2021/04/01 11:09:11;;;;;;;16.77;8.52;;;;;;;9.41;78.56;102130.72;5016661;28;20135;-81
2021/04/01 11:12:25;;;;;;;20.85;7.80;;;;;;;9.49;78.30;102130.84;5034446;28;20045;-81
2021/04/01 11:14:30;;;;;;;19.77;8.18;;;;;;;9.64;78.00;102143.56;5004974;28;20160;-81
2021/04/01 11:16:59;;;;;;;19.00;7.65;;;;;;;9.64;77.54;102138.03;5034778;28;20201;-81
2021/04/01 11:19:27;;;;;;;22.83;8.23;;;;;;;9.52;77.75;102143.25;5018020;28;20493;-81
2021/04/01 11:21:55;;;;;;;22.92;8.10;;;;;;;9.54;77.62;102141.81;4996319;28;20076;-81
2021/04/01 11:24:29;;;;;;;21.98;8.77;;;;;;;9.62;77.71;102137.50;5030468;28;20069;-81
2021/04/01 11:26:56;;;;;;;20.42;7.07;;;;;;;9.63;77.67;102144.69;5031516;28;20041;-80
2021/04/01 11:29:30;;;;;;;17.45;8.05;;;;;;;9.64;77.59;102140.78;5016105;28;20036;-80
2021/04/01 11:32:14;;;;;;;18.50;7.63;;;;;;;9.59;77.22;102140.88;5015425;28;20366;-81
2021/04/01 11:34:42;;;;;;;22.73;7.47;;;;;;;9.65;77.31;102136.91;5012610;28;20498;-82
2021/04/01 11:37:11;;;;;;;21.15;7.13;;;;;;;9.62;77.19;102140.28;5010487;28;20042;-81
2021/04/01 11:39:39;;;;;;;21.80;7.43;;;;;;;9.55;77.25;102137.09;5020370;28;20867;-83
2021/04/01 11:42:11;;;;;;;21.10;6.82;;;;;;;9.50;77.23;102145.50;5010145;28;20046;-82
2021/04/01 11:44:39;;;;;;;19.20;6.87;;;;;;;9.47;77.58;102138.63;5012861;28;20037;-81
2021/04/01 11:47:20;;;;;;;22.33;7.10;;;;;;;9.47;77.47;102146.09;5031606;28;20294;-83
2021/04/01 11:49:48;;;;;;;29.05;9.77;;;;;;;9.48;77.54;102139.44;5015362;28;20152;-81
2021/04/01 11:52:20;;;;;;;15.93;6.78;;;;;;;9.47;77.66;102141.41;5013651;28;20030;-82
2021/04/01 11:54:48;;;;;;;17.70;7.30;;;;;;;9.52;77.57;102151.53;5012025;28;20092;-80
2021/04/01 11:57:26;;;;;;;17.20;6.45;;;;;;;9.47;77.47;102135.88;5033487;28;20072;-81
2021/04/01 11:59:56;;;;;;;20.65;6.88;;;;;;;9.51;77.46;102141.59;5033789;28;20038;-80
2021/04/01 12:02:25;;;;;;;16.85;6.13;;;;;;;9.49;77.56;102143.84;5016187;28;20049;-80
2021/04/01 12:04:55;;;;;;;22.02;7.05;;;;;;;9.51;77.59;102147.94;5047890;28;20091;-80
2021/04/01 12:07:22;;;;;;;26.30;8.35;;;;;;;9.63;77.56;102151.06;5033439;28;20041;-80
2021/04/01 12:09:50;;;;;;;19.98;7.65;;;;;;;9.65;77.13;102148.78;5052836;28;20037;-80
2021/04/01 12:12:33;;;;;;;17.65;6.40;;;;;;;9.64;76.99;102149.09;5051105;28;20041;-80
2021/04/01 12:15:01;;;;;;;22.13;7.57;;;;;;;9.64;77.25;102151.84;5054507;28;20044;-80
2021/04/01 12:17:47;;;;;;;19.55;8.15;;;;;;;9.64;77.09;102155.44;5067587;28;20045;-80
2021/04/01 12:20:23;;;;;;;21.00;10.35;;;;;;;9.62;77.07;102154.09;5048860;28;20041;-80
2021/04/01 12:22:54;;;;;;;18.15;7.25;;;;;;;9.67;77.00;102148.47;5048624;28;20098;-79
2021/04/01 12:25:23;;;;;;;20.58;7.38;;;;;;;9.70;76.67;102168.06;5044384;28;20037;-80
2021/04/01 12:27:53;;;;;;;22.60;9.75;;;;;;;9.70;76.82;102162.53;5034658;28;20457;-80
2021/04/01 12:30:34;;;;;;;25.17;9.63;;;;;;;9.60;76.78;102159.13;5050149;28;20052;-79
2021/04/01 12:33:14;;;;;;;24.92;8.48;;;;;;;9.54;76.95;102163.94;5046613;28;20051;-80
2021/04/01 12:35:55;;;;;;;21.10;8.23;;;;;;;9.54;77.08;102152.03;5044464;28;20040;-80
2021/04/01 12:38:29;;;;;;;13.57;6.47;;;;;;;9.56;76.85;102158.06;5048203;28;20135;-79
2021/04/01 12:41:09;;;;;;;18.10;8.30;;;;;;;9.56;76.81;102160.84;5048951;28;20036;-79
2021/04/01 12:43:37;;;;;;;17.40;8.80;;;;;;;9.42;77.10;102173.84;5048937;28;20055;-80
2021/04/01 12:46:05;;;;;;;21.42;9.27;;;;;;;9.34;77.13;102167.06;5050032;28;20099;-79
2021/04/01 12:48:47;;;;;;;20.85;7.85;;;;;;;9.30;77.32;102176.22;5049616;28;20098;-79
2021/04/01 12:51:17;;;;;;;19.80;8.60;;;;;;;9.26;77.52;102172.44;5048235;28;20036;-81
2021/04/01 12:53:44;;;;;;;17.60;7.85;;;;;;;9.26;77.47;102175.22;5039903;28;20045;-82
2021/04/01 12:56:14;;;;;;;17.38;7.13;;;;;;;9.31;77.40;102175.94;5048397;28;20045;-81
2021/04/01 12:59:17;;;;;;;26.00;7.70;;;;;;;9.29;77.55;102178.19;5043986;28;20045;-80
2021/04/01 13:01:47;;;;;;;24.77;8.85;;;;;;;9.20;77.82;102182.75;5036528;28;20122;-80